Athol, MA

10:34 PM EST on March 05, 2015 (GMT -0500)
Orange Municipal | Change Station
CLOSE
Current Station
Airport
Location: Orange,
Elevation: 554 ft
Nearby Weather Stations

Elev 554 ft 42.57 °N, 72.29 °W | Updated 42 minutes ago

Clear
Clear
17 °F
Feels Like 8 °F
N
7
Wind Variable Wind from North

Today
High -- | Low -- °F
--% Chance of Precip.
Yesterday
High -- | Low -- °F
Precip. -- in
6:18 AM 5:43 PM
Full, 100% visible
Pressure 30.30 in
Visibility 10.0 miles
Clouds Clear
Windchill 8 °F
Dew Point 0 °F
Humidity 47%
Rainfall 0.00 in
Snow Depth Not available.
UV 0 out of 12
Pollen .40 out of 12
Air Quality Not available.
Flu Activity Not available.
METAR KORE 060252Z AUTO 35006KT 10SM CLR M08/M18 A3027 RMK AO2 SLP261 T10831178 53027

More Conditions Fewer Conditions

Pressure 30.30 in
Visibility 10.0 miles
Clouds Clear
Windchill 8 °F
Dew Point 0 °F
Humidity 47%
Rainfall 0.00 in
Snow Depth Not available.
UV 0 out of 12
Pollen .40 out of 12
Air Quality Not available.
Flu Activity Not available.
METAR KORE 060252Z AUTO 35006KT 10SM CLR M08/M18 A3027 RMK AO2 SLP261 T10831178 53027

More Conditions Fewer Conditions

10-Day Weather Forecast

Almanac

Astronomy

Mar. 05, 2015 Rise Set
Actual Time
Civil Twilight
Nautical Twilight
Astronomical Twilight
Moon
Length of Visible Light
Length of Day
Tomorrow will be .
, % of the Moon is Illuminated

Today's Extremes

State Highs State Lows

Community

WunderPhotos

Upload Photos

1,803,166 photos uploaded!

WunderBlogs® & News

Nearby

Air Quality

  Air Quality AQ Index Pollutant
Not available.

Snow Depth

Station Depth Elevation

Earthquake Activity

City Distance Mag. Time & Date
Minimum magnitude displayed is 2.5.

Coastal Water Temperatures

Place Temperature

Nearby Weather Stations